createdAt,value
2023-02-08T00:01:48.422Z,5.03
2023-02-08T00:04:19.086Z,5.53
2023-02-08T00:06:49.036Z,5.32
2023-02-08T00:09:23.782Z,5.50
2023-02-08T00:11:56.710Z,5.88
2023-02-08T00:14:27.985Z,5.67
2023-02-08T00:17:01.801Z,5.40
2023-02-08T00:19:32.067Z,5.45
2023-02-08T00:22:07.641Z,6.05
2023-02-08T00:24:38.422Z,5.65
2023-02-08T00:27:08.789Z,5.70
2023-02-08T00:29:38.743Z,5.03
2023-02-08T00:32:11.205Z,5.43
2023-02-08T00:34:41.325Z,5.55
2023-02-08T00:37:16.124Z,5.70
2023-02-08T00:39:48.999Z,5.45
2023-02-08T00:42:21.825Z,5.38
2023-02-08T00:44:59.521Z,5.53
2023-02-08T00:47:29.592Z,5.65
2023-02-08T00:50:07.463Z,5.53
2023-02-08T00:52:43.673Z,5.70
2023-02-08T00:55:11.795Z,6.43
2023-02-08T00:57:41.797Z,5.45
2023-02-08T01:00:12.735Z,5.38
2023-02-08T01:02:45.100Z,5.85
2023-02-08T01:05:15.621Z,5.82
2023-02-08T01:07:49.034Z,5.13
2023-02-08T01:10:22.747Z,5.55
2023-02-08T01:12:55.645Z,5.57
2023-02-08T01:15:27.447Z,5.35
2023-02-08T01:18:01.045Z,5.47
2023-02-08T01:20:31.353Z,5.35
2023-02-08T01:23:02.994Z,5.53
2023-02-08T01:25:36.792Z,5.90
2023-02-08T01:28:08.623Z,5.00
2023-02-08T01:30:44.166Z,5.90
2023-02-08T01:33:17.506Z,5.57
2023-02-08T01:35:45.111Z,5.43
2023-02-08T01:38:18.314Z,5.20
2023-02-08T01:40:51.502Z,5.10
2023-02-08T01:43:23.846Z,5.35
2023-02-08T01:45:54.563Z,5.32
2023-02-08T01:48:35.949Z,5.47
2023-02-08T01:51:14.006Z,5.40
2023-02-08T01:53:47.201Z,5.38
2023-02-08T01:56:22.716Z,5.13
2023-02-08T01:58:56.268Z,5.32
2023-02-08T02:01:32.201Z,5.18
2023-02-08T02:04:05.780Z,5.65
2023-02-08T02:06:46.908Z,5.47
2023-02-08T02:09:46.038Z,4.80
2023-02-08T02:12:17.650Z,5.22
2023-02-08T02:14:51.537Z,4.93
2023-02-08T02:17:24.741Z,5.38
2023-02-08T02:19:57.759Z,5.03
2023-02-08T02:22:46.891Z,5.43
2023-02-08T02:25:36.287Z,5.15
2023-02-08T02:28:31.883Z,5.00
2023-02-08T02:31:11.722Z,4.63
2023-02-08T02:33:53.756Z,5.18
2023-02-08T02:36:36.010Z,5.00
2023-02-08T02:39:45.524Z,5.13
2023-02-08T02:42:34.481Z,4.80
2023-02-08T02:45:19.951Z,4.90
2023-02-08T02:47:55.786Z,4.75
2023-02-08T02:50:41.786Z,4.70
2023-02-08T02:53:38.798Z,4.45
2023-02-08T02:56:24.810Z,4.65
2023-02-08T02:58:58.482Z,4.38
2023-02-08T03:04:13.202Z,4.65
2023-02-08T03:06:55.446Z,4.32
2023-02-08T03:09:32.062Z,4.93
2023-02-08T03:12:15.854Z,4.55
2023-02-08T03:15:21.132Z,4.40
2023-02-08T03:18:22.811Z,4.25
2023-02-08T03:20:59.381Z,4.75
2023-02-08T03:23:41.004Z,4.50
2023-02-08T03:26:43.230Z,4.40
2023-02-08T03:29:37.350Z,4.50
2023-02-08T03:32:17.834Z,4.60
2023-02-08T03:34:53.106Z,4.35
2023-02-08T03:37:26.475Z,4.45
2023-02-08T03:40:16.460Z,4.40
2023-02-08T03:42:50.725Z,3.72
2023-02-08T03:45:26.913Z,4.30
2023-02-08T03:48:03.194Z,4.50
2023-02-08T03:50:37.052Z,4.30
2023-02-08T03:53:06.925Z,4.20
2023-02-08T03:55:45.617Z,4.53
2023-02-08T03:58:24.211Z,4.13
2023-02-08T04:01:26.682Z,4.30
2023-02-08T04:04:00.311Z,3.83
2023-02-08T04:06:30.132Z,3.92
2023-02-08T04:09:00.425Z,4.07
2023-02-08T04:11:34.022Z,4.05
2023-02-08T04:14:04.345Z,3.65
2023-02-08T04:16:35.046Z,4.18
2023-02-08T04:19:08.284Z,3.97
2023-02-08T04:21:35.980Z,3.67
2023-02-08T04:24:11.688Z,4.30
2023-02-08T04:26:44.908Z,4.05
2023-02-08T04:29:12.709Z,4.50
2023-02-08T04:31:43.046Z,4.07
2023-02-08T04:34:11.036Z,3.75
2023-02-08T04:36:41.699Z,3.67
2023-02-08T04:39:17.979Z,4.15
2023-02-08T04:41:47.987Z,3.92
2023-02-08T04:44:18.623Z,3.85
2023-02-08T04:46:51.036Z,3.72
2023-02-08T04:49:21.590Z,4.28
2023-02-08T04:51:51.609Z,3.92
2023-02-08T04:54:25.398Z,3.70
2023-02-08T04:56:56.601Z,3.85
2023-02-08T04:59:27.302Z,3.78
2023-02-08T05:01:59.169Z,3.80
2023-02-08T05:04:31.208Z,3.95
2023-02-08T05:07:02.249Z,3.72
2023-02-08T05:09:38.468Z,3.60
2023-02-08T05:12:09.292Z,3.88
2023-02-08T05:14:42.160Z,3.50
2023-02-08T05:17:12.613Z,3.70
2023-02-08T05:19:42.905Z,4.00
2023-02-08T05:22:15.408Z,4.05
2023-02-08T05:24:43.027Z,3.53
2023-02-08T05:27:15.683Z,3.53
2023-02-08T05:29:48.711Z,3.70
2023-02-08T05:32:22.380Z,3.40
2023-02-08T05:34:53.230Z,3.22
2023-02-08T05:37:26.735Z,3.70
2023-02-08T05:39:55.111Z,3.92
2023-02-08T05:42:25.782Z,3.35
2023-02-08T05:45:01.352Z,3.25
2023-02-08T05:47:34.260Z,3.65
2023-02-08T05:50:07.406Z,3.50
2023-02-08T05:52:34.749Z,3.50
2023-02-08T05:55:03.171Z,3.65
2023-02-08T05:57:37.473Z,3.50
2023-02-08T06:00:06.243Z,3.80
2023-02-08T06:02:51.264Z,3.60
2023-02-08T06:05:28.329Z,3.20
2023-02-08T06:07:58.820Z,3.42
2023-02-08T06:10:32.987Z,3.30
2023-02-08T06:13:06.162Z,3.40
2023-02-08T06:15:38.784Z,3.28
2023-02-08T06:18:12.457Z,3.53
2023-02-08T06:23:16.288Z,3.08
2023-02-08T06:25:47.161Z,3.67
2023-02-08T06:28:18.396Z,3.75
2023-02-08T06:30:46.163Z,3.70
2023-02-08T06:33:20.229Z,3.53
2023-02-08T06:35:57.852Z,3.90
2023-02-08T06:38:28.253Z,3.55
2023-02-08T06:41:01.768Z,3.47
2023-02-08T06:43:31.808Z,3.55
2023-02-08T06:46:04.902Z,3.80
2023-02-08T06:48:35.911Z,4.10
2023-02-08T06:51:06.184Z,3.85
2023-02-08T06:53:36.616Z,3.90
2023-02-08T06:56:07.142Z,3.78
2023-02-08T06:58:37.969Z,3.58
2023-02-08T07:01:14.178Z,3.75
2023-02-08T07:03:45.318Z,3.97
2023-02-08T07:06:16.363Z,3.95
2023-02-08T07:08:53.801Z,3.90
2023-02-08T07:11:29.742Z,3.53
2023-02-08T07:14:02.388Z,3.90
2023-02-08T07:16:34.963Z,4.20
2023-02-08T07:19:10.164Z,3.83
2023-02-08T07:21:49.530Z,3.97
2023-02-08T07:24:18.826Z,3.72
2023-02-08T07:26:52.611Z,3.65
2023-02-08T07:29:23.840Z,3.58
2023-02-08T07:31:51.649Z,3.60
2023-02-08T07:34:22.491Z,3.92
2023-02-08T07:36:55.652Z,3.58
2023-02-08T07:39:31.496Z,3.80
2023-02-08T07:42:06.421Z,3.92
2023-02-08T07:44:42.999Z,3.72
2023-02-08T07:47:19.595Z,3.80
2023-02-08T07:50:08.740Z,3.78
2023-02-08T07:52:44.158Z,3.72
2023-02-08T07:55:20.907Z,4.03
2023-02-08T07:57:52.845Z,3.83
2023-02-08T08:00:27.085Z,3.70
2023-02-08T08:03:00.764Z,4.00
2023-02-08T08:08:08.149Z,3.70
2023-02-08T08:10:48.172Z,3.65
2023-02-08T08:13:21.552Z,3.97
2023-02-08T08:15:54.408Z,3.72
2023-02-08T08:18:21.992Z,3.80
2023-02-08T08:20:55.508Z,4.13
2023-02-08T08:25:53.484Z,3.72
2023-02-08T08:28:24.672Z,4.25
2023-02-08T08:30:52.941Z,3.90
2023-02-08T08:33:21.264Z,3.60
2023-02-08T08:35:54.943Z,3.80
2023-02-08T08:38:25.099Z,3.78
2023-02-08T08:40:59.539Z,4.00
2023-02-08T08:43:29.423Z,3.67
2023-02-08T08:46:02.669Z,3.70
2023-02-08T08:48:30.741Z,3.72
2023-02-08T08:51:07.120Z,4.13
2023-02-08T08:53:40.387Z,3.70
2023-02-08T08:56:13.467Z,4.00
2023-02-08T08:58:43.709Z,3.63
2023-02-08T09:01:14.202Z,3.50
2023-02-08T09:03:47.665Z,3.83
2023-02-08T09:08:58.204Z,3.78
2023-02-08T09:11:26.487Z,3.40
2023-02-08T09:13:58.862Z,3.80
2023-02-08T09:16:29.640Z,3.72
2023-02-08T09:19:07.984Z,3.60
2023-02-08T09:21:43.092Z,3.75
2023-02-08T09:24:17.251Z,3.53
2023-02-08T09:26:47.776Z,3.90
2023-02-08T09:29:23.396Z,3.63
2023-02-08T09:31:54.032Z,4.07
2023-02-08T09:34:25.436Z,3.40
2023-02-08T09:36:55.771Z,3.70
2023-02-08T09:39:30.798Z,3.90
2023-02-08T09:42:16.700Z,3.67
2023-02-08T09:45:08.961Z,3.95
2023-02-08T09:47:44.457Z,3.80
2023-02-08T09:50:22.435Z,3.78
2023-02-08T09:53:00.645Z,3.88
2023-02-08T09:55:45.047Z,4.20
2023-02-08T09:58:38.616Z,3.75
2023-02-08T10:01:18.801Z,4.40
2023-02-08T10:04:01.853Z,3.97
2023-02-08T10:06:33.578Z,3.92
2023-02-08T10:09:09.980Z,4.20
2023-02-08T10:12:00.533Z,4.18
2023-02-08T10:15:03.258Z,3.85
2023-02-08T10:18:01.165Z,3.88
2023-02-08T10:20:38.518Z,3.88
2023-02-08T10:23:21.884Z,4.00
2023-02-08T10:29:07.461Z,3.88
2023-02-08T10:31:49.029Z,3.83
2023-02-08T10:34:44.773Z,4.10
2023-02-08T10:37:28.301Z,4.05
2023-02-08T10:40:01.514Z,3.85
2023-02-08T10:42:31.824Z,3.78
2023-02-08T10:45:18.891Z,3.75
2023-02-08T10:47:59.085Z,3.92
2023-02-08T10:50:42.397Z,4.00
2023-02-08T10:53:20.204Z,3.63
2023-02-08T10:55:49.527Z,3.75
2023-02-08T10:58:20.729Z,3.60
2023-02-08T11:00:52.362Z,3.90
2023-02-08T11:03:25.696Z,3.33
2023-02-08T11:05:59.100Z,4.22
2023-02-08T11:08:59.205Z,3.90
2023-02-08T11:11:29.784Z,3.80
2023-02-08T11:14:17.935Z,3.63
2023-02-08T11:16:56.160Z,4.32
2023-02-08T11:19:46.348Z,3.83
2023-02-08T11:22:19.220Z,4.20
2023-02-08T11:25:02.702Z,4.35
2023-02-08T11:27:50.919Z,3.83
2023-02-08T11:30:26.737Z,3.75
2023-02-08T11:33:35.838Z,4.30
2023-02-08T11:36:10.184Z,3.80
2023-02-08T11:38:45.450Z,3.88
2023-02-08T11:41:19.787Z,4.10
2023-02-08T11:44:01.256Z,4.00
2023-02-08T11:46:34.835Z,3.50
2023-02-08T11:51:39.980Z,3.90
2023-02-08T11:54:34.381Z,4.00
2023-02-08T11:57:10.981Z,3.90
2023-02-08T11:59:41.006Z,3.60
2023-02-08T12:02:41.893Z,4.30
2023-02-08T12:05:15.664Z,4.30
2023-02-08T12:07:56.130Z,4.15
2023-02-08T12:10:50.973Z,3.95
2023-02-08T12:13:50.275Z,3.78
2023-02-08T12:16:44.406Z,3.72
2023-02-08T12:19:49.770Z,3.60
2023-02-08T12:22:26.686Z,4.22
2023-02-08T12:25:09.131Z,3.95
2023-02-08T12:28:11.398Z,3.80
2023-02-08T12:31:06.161Z,3.78
2023-02-08T12:33:44.398Z,3.40
2023-02-08T12:36:21.313Z,3.47
2023-02-08T12:39:44.966Z,3.95
2023-02-08T12:42:42.418Z,3.55
2023-02-08T12:45:29.391Z,4.05
2023-02-08T12:48:16.940Z,3.60
2023-02-08T12:50:53.217Z,3.72
2023-02-08T12:53:33.367Z,3.85
2023-02-08T12:56:16.777Z,4.10
2023-02-08T12:58:47.208Z,4.18
2023-02-08T13:01:21.028Z,3.90
2023-02-08T13:04:04.016Z,4.00
2023-02-08T13:06:47.556Z,3.78
2023-02-08T13:09:31.236Z,3.67
2023-02-08T13:12:06.505Z,4.05
2023-02-08T13:14:57.850Z,3.53
2023-02-08T13:17:39.696Z,3.83
2023-02-08T13:20:43.422Z,3.35
2023-02-08T13:23:38.458Z,4.03
2023-02-08T13:26:29.670Z,4.10
2023-02-08T13:29:10.808Z,4.00
2023-02-08T13:31:59.215Z,4.22
2023-02-08T13:34:44.924Z,3.88
2023-02-08T13:37:32.191Z,4.80
2023-02-08T13:40:32.107Z,3.97
2023-02-08T13:43:35.460Z,4.28
2023-02-08T13:46:13.887Z,3.97
2023-02-08T13:48:55.185Z,4.53
2023-02-08T13:51:31.938Z,4.43
2023-02-08T13:54:11.037Z,3.95
2023-02-08T13:56:52.193Z,4.35
2023-02-08T13:59:42.241Z,4.05
2023-02-08T14:02:17.822Z,4.50
2023-02-08T14:05:00.289Z,4.68
2023-02-08T14:07:39.581Z,4.57
2023-02-08T14:10:28.488Z,4.45
2023-02-08T14:13:19.155Z,4.32
2023-02-08T14:15:50.114Z,4.05
2023-02-08T14:18:30.400Z,4.25
2023-02-08T14:21:07.483Z,3.90
2023-02-08T14:23:41.530Z,4.55
2023-02-08T14:26:24.278Z,4.18
2023-02-08T14:29:04.185Z,4.05
2023-02-08T14:31:45.373Z,4.60
2023-02-08T14:34:21.874Z,4.03
2023-02-08T14:37:01.361Z,4.20
2023-02-08T14:39:33.672Z,4.38
2023-02-08T14:42:08.535Z,4.28
2023-02-08T14:44:43.174Z,4.28
2023-02-08T14:47:36.486Z,4.75
2023-02-08T14:50:31.164Z,4.43
2023-02-08T14:53:13.912Z,3.97
2023-02-08T14:55:52.228Z,4.57
2023-02-08T14:58:32.101Z,4.40
2023-02-08T15:01:08.389Z,4.63
2023-02-08T15:03:45.112Z,4.40
2023-02-08T15:06:49.903Z,4.50
2023-02-08T15:09:32.521Z,4.63
2023-02-08T15:12:27.889Z,4.40
2023-02-08T15:15:06.728Z,4.18
2023-02-08T15:17:42.087Z,4.65
2023-02-08T15:20:23.056Z,4.50
2023-02-08T15:23:03.047Z,4.50
2023-02-08T15:25:35.125Z,4.65
2023-02-08T15:28:16.983Z,4.10
2023-02-08T15:30:46.517Z,4.65
2023-02-08T15:33:22.132Z,5.18
2023-02-08T15:36:01.726Z,4.30
2023-02-08T15:38:38.623Z,4.85
2023-02-08T15:41:12.031Z,4.85
2023-02-08T15:43:44.013Z,4.63
2023-02-08T15:46:26.371Z,4.88
2023-02-08T15:49:00.100Z,4.75
2023-02-08T15:51:34.057Z,4.30
2023-02-08T15:54:05.542Z,4.90
2023-02-08T15:56:42.466Z,4.32
2023-02-08T15:59:26.235Z,5.15
2023-02-08T16:02:01.260Z,4.63
2023-02-08T16:04:42.379Z,4.82
2023-02-08T16:07:43.252Z,4.80
2023-02-08T16:10:36.957Z,4.60
2023-02-08T16:13:20.072Z,5.20
2023-02-08T16:16:07.060Z,5.00
2023-02-08T16:18:44.809Z,4.65
2023-02-08T16:21:27.069Z,4.45
2023-02-08T16:23:56.756Z,4.45
2023-02-08T16:26:36.149Z,4.70
2023-02-08T16:29:09.565Z,4.35
2023-02-08T16:31:40.607Z,4.80
2023-02-08T16:34:19.015Z,4.78
2023-02-08T16:36:54.102Z,4.40
2023-02-08T16:39:54.607Z,4.45
2023-02-08T16:42:35.988Z,4.65
2023-02-08T16:45:18.138Z,4.32
2023-02-08T16:47:58.395Z,4.18
2023-02-08T16:50:28.586Z,4.22
2023-02-08T16:53:13.372Z,4.60
2023-02-08T16:55:44.710Z,4.82
2023-02-08T16:58:19.456Z,4.50
2023-02-08T17:00:49.814Z,4.57
2023-02-08T17:03:21.230Z,4.38
2023-02-08T17:06:00.440Z,4.30
2023-02-08T17:08:35.947Z,5.30
2023-02-08T17:11:09.731Z,4.97
2023-02-08T17:16:22.031Z,4.40
2023-02-08T17:18:50.691Z,4.97
2023-02-08T17:21:24.370Z,4.78
2023-02-08T17:23:59.101Z,4.88
2023-02-08T17:26:39.763Z,4.65
2023-02-08T17:29:14.426Z,5.03
2023-02-08T17:31:47.420Z,4.82
2023-02-08T17:34:17.821Z,4.47
2023-02-08T17:36:47.792Z,4.55
2023-02-08T17:39:23.952Z,4.72
2023-02-08T17:41:59.730Z,4.65
2023-02-08T17:44:29.977Z,4.43
2023-02-08T17:47:05.885Z,4.38
2023-02-08T17:49:43.272Z,4.70
2023-02-08T17:52:21.013Z,5.30
2023-02-08T17:54:54.226Z,5.43
2023-02-08T17:57:24.109Z,5.45
2023-02-08T17:59:53.901Z,4.95
2023-02-08T18:02:24.657Z,4.50
2023-02-08T18:04:57.927Z,4.95
2023-02-08T18:07:29.982Z,4.70
2023-02-08T18:10:00.235Z,4.90
2023-02-08T18:12:34.160Z,5.10
2023-02-08T18:18:21.626Z,4.85
2023-02-08T18:20:56.817Z,4.57
2023-02-08T18:23:26.354Z,4.53
2023-02-08T18:26:07.986Z,4.78
2023-02-08T18:28:39.055Z,4.75
2023-02-08T18:31:09.442Z,4.45
2023-02-08T18:33:40.024Z,4.15
2023-02-08T18:36:12.854Z,4.82
2023-02-08T18:38:45.618Z,4.65
2023-02-08T18:41:21.266Z,4.95
2023-02-08T18:43:49.588Z,4.35
2023-02-08T18:46:21.908Z,4.97
2023-02-08T18:48:58.050Z,4.50
2023-02-08T18:51:26.396Z,4.63
2023-02-08T18:53:54.993Z,4.50
2023-02-08T18:56:25.231Z,4.57
2023-02-08T18:59:00.686Z,4.22
2023-02-08T19:01:28.713Z,4.25
2023-02-08T19:03:59.034Z,4.53
2023-02-08T19:06:31.666Z,4.18
2023-02-08T19:09:03.244Z,4.30
2023-02-08T19:11:38.846Z,3.83
2023-02-08T19:14:12.793Z,4.22
2023-02-08T19:16:46.268Z,4.22
2023-02-08T19:19:13.951Z,4.00
2023-02-08T19:21:46.109Z,3.90
2023-02-08T19:24:15.323Z,3.60
2023-02-08T19:26:48.575Z,3.80
2023-02-08T19:29:25.758Z,3.85
2023-02-08T19:31:58.657Z,4.03
2023-02-08T19:34:29.312Z,3.85
2023-02-08T19:36:57.077Z,3.50
2023-02-08T19:39:27.297Z,3.85
2023-02-08T19:41:58.832Z,4.50
2023-02-08T19:44:29.778Z,3.78
2023-02-08T19:46:59.279Z,3.50
2023-02-08T19:49:34.421Z,3.40
2023-02-08T19:52:07.640Z,3.50
2023-02-08T19:54:40.657Z,3.72
2023-02-08T19:57:11.862Z,3.63
2023-02-08T20:02:18.560Z,3.55
2023-02-08T20:04:51.643Z,3.28
2023-02-08T20:07:19.359Z,3.60
2023-02-08T20:09:46.954Z,3.15
2023-02-08T20:12:17.188Z,4.28
2023-02-08T20:14:44.750Z,3.47
2023-02-08T20:17:15.084Z,3.33
2023-02-08T20:19:48.711Z,3.35
2023-02-08T20:24:43.778Z,3.50
2023-02-08T20:27:16.526Z,3.55
2023-02-08T20:29:46.685Z,3.72
2023-02-08T20:32:14.407Z,2.70
2023-02-08T20:34:59.035Z,3.53
2023-02-08T20:37:35.503Z,3.42
2023-02-08T20:40:08.428Z,3.55
2023-02-08T20:42:39.391Z,3.55
2023-02-08T20:45:15.275Z,3.55
2023-02-08T20:47:46.972Z,3.23
2023-02-08T20:50:19.589Z,3.78
2023-02-08T20:52:49.132Z,2.85
2023-02-08T20:55:19.232Z,3.10
2023-02-08T20:57:46.935Z,3.60
2023-02-08T21:00:21.729Z,3.15
2023-02-08T21:02:50.504Z,3.17
2023-02-08T21:05:20.413Z,3.22
2023-02-08T21:07:53.237Z,3.42
2023-02-08T21:10:26.203Z,3.22
2023-02-08T21:12:54.029Z,3.20
2023-02-08T21:15:27.218Z,3.10
2023-02-08T21:17:57.941Z,3.55
2023-02-08T21:20:27.734Z,3.00
2023-02-08T21:22:59.532Z,3.50
2023-02-08T21:25:30.336Z,3.40
2023-02-08T21:28:03.423Z,3.38
2023-02-08T21:30:35.901Z,3.05
2023-02-08T21:33:04.480Z,3.22
2023-02-08T21:35:38.346Z,3.03
2023-02-08T21:38:13.238Z,2.90
2023-02-08T21:40:46.699Z,3.10
2023-02-08T21:43:17.489Z,2.95
2023-02-08T21:45:47.841Z,3.17
2023-02-08T21:48:15.617Z,3.22
2023-02-08T21:51:10.379Z,3.50
2023-02-08T21:54:16.200Z,3.10
2023-02-08T21:56:46.017Z,3.17
2023-02-08T21:59:13.400Z,3.25
2023-02-08T22:01:41.495Z,3.22
2023-02-08T22:04:14.242Z,3.28
2023-02-08T22:06:49.596Z,3.25
2023-02-08T22:09:20.950Z,3.30
2023-02-08T22:11:56.403Z,3.08
2023-02-08T22:14:36.053Z,3.10
2023-02-08T22:17:09.285Z,2.83
2023-02-08T22:19:46.656Z,3.13
2023-02-08T22:22:18.851Z,3.00
2023-02-08T22:24:59.161Z,2.92
2023-02-08T22:27:32.603Z,3.47
2023-02-08T22:30:06.202Z,3.30
2023-02-08T22:32:33.903Z,3.33
2023-02-08T22:35:06.937Z,2.88
2023-02-08T22:37:39.930Z,3.40
2023-02-08T22:40:18.814Z,3.20
2023-02-08T22:42:48.891Z,3.10
2023-02-08T22:45:21.667Z,3.30
2023-02-08T22:47:54.580Z,2.95
2023-02-08T22:50:22.548Z,3.00
2023-02-08T22:52:52.741Z,3.20
2023-02-08T22:55:20.463Z,3.22
2023-02-08T22:57:51.304Z,3.03
2023-02-08T23:00:21.957Z,3.30
2023-02-08T23:02:57.948Z,3.30
2023-02-08T23:05:28.810Z,3.00
2023-02-08T23:07:56.414Z,3.35
2023-02-08T23:10:31.613Z,2.90
2023-02-08T23:13:02.026Z,2.97
2023-02-08T23:15:32.497Z,2.80
2023-02-08T23:18:02.799Z,3.28
2023-02-08T23:20:32.013Z,3.05
2023-02-08T23:22:59.738Z,2.72
2023-02-08T23:25:30.037Z,3.00
2023-02-08T23:28:09.621Z,3.22
2023-02-08T23:30:42.538Z,3.10
2023-02-08T23:33:15.377Z,3.20
2023-02-08T23:35:48.505Z,2.92
2023-02-08T23:38:20.510Z,2.80
2023-02-08T23:40:59.211Z,2.70
2023-02-08T23:43:29.985Z,2.55
2023-02-08T23:46:07.226Z,2.75
2023-02-08T23:48:35.068Z,3.22
2023-02-08T23:51:06.827Z,3.05
2023-02-08T23:53:38.863Z,3.10
2023-02-08T23:56:20.624Z,2.95
2023-02-08T23:58:55.508Z,3.33
